createdAt,value
2023-04-09T00:02:10.979Z,14.63
2023-04-09T00:04:37.647Z,13.77
2023-04-09T00:07:04.201Z,15.00
2023-04-09T00:09:30.996Z,14.63
2023-04-09T00:11:58.285Z,14.60
2023-04-09T00:14:24.971Z,15.55
2023-04-09T00:16:51.512Z,15.02
2023-04-09T00:19:18.025Z,15.48
2023-04-09T00:21:44.574Z,15.30
2023-04-09T00:24:11.275Z,15.55
2023-04-09T00:26:37.860Z,14.43
2023-04-09T00:29:04.398Z,16.33
2023-04-09T00:31:30.994Z,14.80
2023-04-09T00:33:57.550Z,14.93
2023-04-09T00:36:25.922Z,15.55
2023-04-09T00:38:54.197Z,14.77
2023-04-09T00:41:20.922Z,13.65
2023-04-09T00:43:47.449Z,15.57
2023-04-09T00:46:14.609Z,16.15
2023-04-09T00:48:41.839Z,15.13
2023-04-09T00:51:08.960Z,16.35
2023-04-09T00:53:35.611Z,18.05
2023-04-09T00:56:02.985Z,17.60
2023-04-09T00:58:29.722Z,16.92
2023-04-09T01:00:56.442Z,17.60
2023-04-09T01:03:23.529Z,16.80
2023-04-09T01:06:03.412Z,17.38
2023-04-09T01:08:32.971Z,17.75
2023-04-09T01:11:10.043Z,17.77
2023-04-09T01:13:53.450Z,16.95
2023-04-09T01:16:24.279Z,18.23
2023-04-09T01:18:56.551Z,17.33
2023-04-09T01:21:27.559Z,16.45
2023-04-09T01:24:06.945Z,17.42
2023-04-09T01:27:01.576Z,17.65
2023-04-09T01:29:33.429Z,16.42
2023-04-09T01:32:03.101Z,16.75
2023-04-09T01:34:31.061Z,17.52
2023-04-09T01:37:00.792Z,17.30
2023-04-09T01:39:27.648Z,16.73
2023-04-09T01:41:56.240Z,16.35
2023-04-09T01:44:24.559Z,17.02
2023-04-09T01:46:51.879Z,17.23
2023-04-09T01:49:18.831Z,17.50
2023-04-09T01:51:46.000Z,19.08
2023-04-09T01:54:12.588Z,19.02
2023-04-09T01:56:47.858Z,20.00
2023-04-09T01:59:14.988Z,19.73
2023-04-09T02:01:47.072Z,19.25
2023-04-09T02:04:19.256Z,19.58
2023-04-09T02:09:13.341Z,20.30
2023-04-09T02:11:42.243Z,19.83
2023-04-09T02:14:11.301Z,19.65
2023-04-09T02:16:39.927Z,20.15
2023-04-09T02:19:06.519Z,20.35
2023-04-09T02:21:33.274Z,20.25
2023-04-09T02:23:59.832Z,19.73
2023-04-09T02:26:26.461Z,19.60
2023-04-09T02:28:53.270Z,20.70
2023-04-09T02:31:20.108Z,18.90
2023-04-09T02:33:46.683Z,18.42
2023-04-09T02:36:13.848Z,17.65
2023-04-09T02:38:42.047Z,17.88
2023-04-09T02:41:09.307Z,18.10
2023-04-09T02:43:36.085Z,16.90
2023-04-09T02:46:02.872Z,17.63
2023-04-09T02:48:29.506Z,17.33
2023-04-09T02:50:57.439Z,17.38
2023-04-09T02:53:24.078Z,17.60
2023-04-09T02:55:50.610Z,16.83
2023-04-09T02:58:17.155Z,17.35
2023-04-09T03:00:43.667Z,17.00
2023-04-09T03:03:10.702Z,16.23
2023-04-09T03:05:38.063Z,16.90
2023-04-09T03:08:04.742Z,15.93
2023-04-09T03:10:31.424Z,16.15
2023-04-09T03:12:57.914Z,15.63
2023-04-09T03:15:24.422Z,16.30
2023-04-09T03:17:51.220Z,16.15
2023-04-09T03:20:17.790Z,16.40
2023-04-09T03:22:44.340Z,15.63
2023-04-09T03:25:10.975Z,15.73
2023-04-09T03:27:37.549Z,16.48
2023-04-09T03:30:04.504Z,15.95
2023-04-09T03:32:31.254Z,16.80
2023-04-09T03:34:57.822Z,16.23
2023-04-09T03:37:24.320Z,15.68
2023-04-09T03:39:50.931Z,16.98
2023-04-09T03:42:17.484Z,17.10
2023-04-09T03:44:43.987Z,17.13
2023-04-09T03:47:10.657Z,16.00
2023-04-09T03:49:37.340Z,17.42
2023-04-09T03:52:03.975Z,17.35
2023-04-09T03:54:30.991Z,17.27
2023-04-09T03:56:57.618Z,17.38
2023-04-09T03:59:24.753Z,16.83
2023-04-09T04:01:51.783Z,16.70
2023-04-09T04:04:19.900Z,19.02
2023-04-09T04:06:47.738Z,17.15
2023-04-09T04:09:14.448Z,17.27
2023-04-09T04:11:40.986Z,18.58
2023-04-09T04:14:07.510Z,18.92
2023-04-09T04:16:34.093Z,18.17
2023-04-09T04:19:00.725Z,19.25
2023-04-09T04:21:27.303Z,19.95
2023-04-09T04:23:53.843Z,17.95
2023-04-09T04:26:20.427Z,19.20
2023-04-09T04:28:47.019Z,20.58
2023-04-09T04:31:13.651Z,19.88
2023-04-09T04:33:41.758Z,19.60
2023-04-09T04:36:10.444Z,19.17
2023-04-09T04:38:37.296Z,18.90
2023-04-09T04:41:04.036Z,19.88
2023-04-09T04:43:31.452Z,18.85
2023-04-09T04:45:58.165Z,19.65
2023-04-09T04:48:24.934Z,19.38
2023-04-09T04:50:57.032Z,18.52
2023-04-09T04:53:23.683Z,18.67
2023-04-09T04:55:50.545Z,16.27
2023-04-09T04:58:17.452Z,15.63
2023-04-09T05:00:44.235Z,14.48
2023-04-09T05:03:11.261Z,15.23
2023-04-09T05:05:37.827Z,14.23
2023-04-09T05:08:04.615Z,13.77
2023-04-09T05:10:31.270Z,16.02
2023-04-09T05:12:57.822Z,16.50
2023-04-09T05:16:10.409Z,16.35
2023-04-09T05:21:03.544Z,16.92
2023-04-09T05:23:30.087Z,15.20
2023-04-09T05:25:56.615Z,15.73
2023-04-09T05:28:23.185Z,16.20
2023-04-09T05:30:49.792Z,16.20
2023-04-09T05:33:16.432Z,16.73
2023-04-09T05:35:43.013Z,15.73
2023-04-09T05:38:09.564Z,16.67
2023-04-09T05:40:36.428Z,15.98
2023-04-09T05:43:02.987Z,16.10
2023-04-09T05:45:29.553Z,15.63
2023-04-09T05:47:56.698Z,16.73
2023-04-09T05:50:23.696Z,15.85
2023-04-09T05:52:50.459Z,15.55
2023-04-09T05:55:17.107Z,16.52
2023-04-09T05:57:45.412Z,15.95
2023-04-09T06:00:13.465Z,16.63
2023-04-09T06:02:40.074Z,17.65
2023-04-09T06:05:06.884Z,16.67
2023-04-09T06:07:33.596Z,16.05
2023-04-09T06:10:00.328Z,16.65
2023-04-09T06:12:26.829Z,16.98
2023-04-09T06:14:53.353Z,16.80
2023-04-09T06:17:19.945Z,16.15
2023-04-09T06:19:46.550Z,15.75
2023-04-09T06:22:13.124Z,16.25
2023-04-09T06:24:39.679Z,16.20
2023-04-09T06:27:06.695Z,16.60
2023-04-09T06:29:33.301Z,15.77
2023-04-09T06:31:59.796Z,15.23
2023-04-09T06:34:26.308Z,16.27
2023-04-09T06:36:52.945Z,15.02
2023-04-09T06:39:19.497Z,15.38
2023-04-09T06:41:46.599Z,15.45
2023-04-09T06:44:13.718Z,14.70
2023-04-09T06:46:40.660Z,14.57
2023-04-09T06:49:07.221Z,14.30
2023-04-09T06:51:33.833Z,13.32
2023-04-09T06:54:00.441Z,13.18
2023-04-09T06:56:27.046Z,13.18
2023-04-09T06:58:53.674Z,12.93
2023-04-09T07:01:20.539Z,12.73
2023-04-09T07:03:47.203Z,13.68
2023-04-09T07:06:13.824Z,13.70
2023-04-09T07:08:40.540Z,14.48
2023-04-09T07:11:07.266Z,14.02
2023-04-09T07:13:34.038Z,13.32
2023-04-09T07:16:00.680Z,12.88
2023-04-09T07:18:27.379Z,14.38
2023-04-09T07:20:53.927Z,13.77
2023-04-09T07:23:20.567Z,13.98
2023-04-09T07:25:47.328Z,13.77
2023-04-09T07:28:14.029Z,13.95
2023-04-09T07:30:41.220Z,12.93
2023-04-09T07:33:07.816Z,13.40
2023-04-09T07:35:34.837Z,13.63
2023-04-09T07:38:01.469Z,12.23
2023-04-09T07:40:28.203Z,12.23
2023-04-09T07:42:55.720Z,12.73
2023-04-09T07:45:22.259Z,12.27
2023-04-09T07:47:48.814Z,11.82
2023-04-09T07:50:15.949Z,11.90
2023-04-09T07:52:42.788Z,31.10
2023-04-09T07:55:09.495Z,40.67
2023-04-09T07:57:36.916Z,13.25
2023-04-09T08:00:04.377Z,58.08
2023-04-09T08:02:31.236Z,16.92
2023-04-09T08:04:58.303Z,13.57
2023-04-09T08:07:24.930Z,11.85
2023-04-09T08:09:51.428Z,11.70
2023-04-09T08:12:18.027Z,11.65
2023-04-09T08:14:44.587Z,21.90
2023-04-09T08:17:11.207Z,14.65
2023-04-09T08:19:39.773Z,13.70
2023-04-09T08:22:07.733Z,12.48
2023-04-09T08:24:34.825Z,19.98
2023-04-09T08:27:01.998Z,15.10
2023-04-09T08:29:28.559Z,13.20
2023-04-09T08:31:55.192Z,18.45
2023-04-09T08:34:22.200Z,23.00
2023-04-09T08:36:49.942Z,12.02
2023-04-09T08:39:20.850Z,11.40
2023-04-09T08:41:48.397Z,11.07
2023-04-09T08:44:14.993Z,10.57
2023-04-09T08:46:42.065Z,10.80
2023-04-09T08:49:10.883Z,32.72
2023-04-09T08:51:37.466Z,49.05
2023-04-09T08:54:05.056Z,11.65
2023-04-09T08:56:32.582Z,16.13
2023-04-09T08:58:59.344Z,11.10
2023-04-09T09:01:28.040Z,18.33
2023-04-09T09:03:59.090Z,11.35
2023-04-09T09:06:29.340Z,11.75
2023-04-09T09:09:05.494Z,10.57
2023-04-09T09:11:33.484Z,11.05
2023-04-09T09:14:10.832Z,10.55
2023-04-09T09:16:43.199Z,10.10
2023-04-09T09:19:31.126Z,9.07
2023-04-09T09:22:01.826Z,8.77
2023-04-09T09:24:28.630Z,9.15
2023-04-09T09:26:55.836Z,9.07
2023-04-09T09:29:22.572Z,8.95
2023-04-09T09:31:51.977Z,8.85
2023-04-09T09:34:21.115Z,8.55
2023-04-09T09:36:48.021Z,7.88
2023-04-09T09:39:17.424Z,8.10
2023-04-09T09:41:45.282Z,7.75
2023-04-09T09:44:13.421Z,8.93
2023-04-09T09:46:42.357Z,8.55
2023-04-09T09:49:09.605Z,8.25
2023-04-09T09:51:39.234Z,7.82
2023-04-09T09:54:07.825Z,7.97
2023-04-09T09:56:39.687Z,8.20
2023-04-09T09:59:23.636Z,7.82
2023-04-09T10:01:59.961Z,7.90
2023-04-09T10:04:29.793Z,8.20
2023-04-09T10:06:57.627Z,7.03
2023-04-09T10:09:28.132Z,6.32
2023-04-09T10:11:56.028Z,7.00
2023-04-09T10:14:23.193Z,7.38
2023-04-09T10:16:49.857Z,8.52
2023-04-09T10:19:17.130Z,7.35
2023-04-09T10:22:21.459Z,6.63
2023-04-09T10:24:48.385Z,7.90
2023-04-09T10:27:17.365Z,8.00
2023-04-09T10:29:49.059Z,7.07
2023-04-09T10:32:28.479Z,7.45
2023-04-09T10:35:01.686Z,7.32
2023-04-09T10:37:28.762Z,7.22
2023-04-09T10:39:56.582Z,6.53
2023-04-09T10:42:42.079Z,6.60
2023-04-09T10:45:16.821Z,6.55
2023-04-09T10:47:44.318Z,6.80
2023-04-09T10:50:24.103Z,6.05
2023-04-09T10:52:56.627Z,5.65
2023-04-09T10:55:39.125Z,6.20
2023-04-09T10:58:12.350Z,5.40
2023-04-09T11:00:41.826Z,5.18
2023-04-09T11:03:22.258Z,5.80
2023-04-09T11:05:52.639Z,6.07
2023-04-09T11:08:19.538Z,5.97
2023-04-09T11:10:49.775Z,5.65
2023-04-09T11:13:20.074Z,5.15
2023-04-09T11:15:46.742Z,5.72
2023-04-09T11:18:24.518Z,4.97
2023-04-09T11:20:55.367Z,6.25
2023-04-09T11:23:22.127Z,6.03
2023-04-09T11:25:51.148Z,6.68
2023-04-09T11:28:18.750Z,5.80
2023-04-09T11:30:46.945Z,5.50
2023-04-09T11:33:14.178Z,5.63
2023-04-09T11:35:40.982Z,5.63
2023-04-09T11:38:09.187Z,5.70
2023-04-09T11:40:36.405Z,5.63
2023-04-09T11:43:03.260Z,5.57
2023-04-09T11:45:31.720Z,5.10
2023-04-09T11:47:58.919Z,5.90
2023-04-09T11:50:25.844Z,5.25
2023-04-09T11:52:52.652Z,5.50
2023-04-09T11:55:26.933Z,5.70
2023-04-09T11:57:57.493Z,5.20
2023-04-09T12:00:25.112Z,6.22
2023-04-09T12:02:59.722Z,5.28
2023-04-09T12:05:30.636Z,6.50
2023-04-09T12:08:07.544Z,5.35
2023-04-09T12:10:38.119Z,6.22
2023-04-09T12:13:10.493Z,5.75
2023-04-09T12:15:41.003Z,5.38
2023-04-09T12:18:12.409Z,5.25
2023-04-09T12:20:40.017Z,5.43
2023-04-09T12:23:08.291Z,4.75
2023-04-09T12:25:39.251Z,4.50
2023-04-09T12:28:07.498Z,4.47
2023-04-09T12:30:35.424Z,4.18
2023-04-09T12:33:03.488Z,4.45
2023-04-09T12:35:30.426Z,4.28
2023-04-09T12:37:57.235Z,4.80
2023-04-09T12:40:23.757Z,4.93
2023-04-09T12:42:50.350Z,4.55
2023-04-09T12:45:18.950Z,4.13
2023-04-09T12:47:46.019Z,4.35
2023-04-09T12:50:15.023Z,4.55
2023-04-09T12:52:42.195Z,4.10
2023-04-09T12:55:09.288Z,3.95
2023-04-09T12:57:37.375Z,4.25
2023-04-09T13:00:05.931Z,4.45
2023-04-09T13:02:32.670Z,4.65
2023-04-09T13:04:59.405Z,4.13
2023-04-09T13:07:29.192Z,4.15
2023-04-09T13:09:56.807Z,4.72
2023-04-09T13:12:24.140Z,4.20
2023-04-09T13:14:53.673Z,4.50
2023-04-09T13:17:20.630Z,4.00
2023-04-09T13:19:47.384Z,3.70
2023-04-09T13:22:14.035Z,4.10
2023-04-09T13:24:40.798Z,3.88
2023-04-09T13:27:09.672Z,3.90
2023-04-09T13:29:36.658Z,3.67
2023-04-09T13:32:07.174Z,4.13
2023-04-09T13:34:35.124Z,4.45
2023-04-09T13:37:04.993Z,4.38
2023-04-09T13:39:31.530Z,4.13
2023-04-09T13:41:58.249Z,4.13
2023-04-09T13:44:25.799Z,3.60
2023-04-09T13:46:52.800Z,3.33
2023-04-09T13:49:19.458Z,3.67
2023-04-09T13:51:46.692Z,4.20
2023-04-09T13:54:13.457Z,3.65
2023-04-09T13:56:40.492Z,3.95
2023-04-09T13:59:07.199Z,3.40
2023-04-09T14:01:34.463Z,3.50
2023-04-09T14:04:01.387Z,3.70
2023-04-09T14:06:28.105Z,3.72
2023-04-09T14:08:55.907Z,3.90
2023-04-09T14:11:22.548Z,3.83
2023-04-09T14:13:49.146Z,3.55
2023-04-09T14:16:15.830Z,3.38
2023-04-09T14:18:42.441Z,3.22
2023-04-09T14:21:10.325Z,3.10
2023-04-09T14:23:39.701Z,2.70
2023-04-09T14:26:07.028Z,3.50
2023-04-09T14:28:33.763Z,3.38
2023-04-09T14:31:00.622Z,3.00
2023-04-09T14:33:27.636Z,3.00
2023-04-09T14:35:54.404Z,3.08
2023-04-09T14:38:20.951Z,2.85
2023-04-09T14:40:47.539Z,2.95
2023-04-09T14:43:14.135Z,2.92
2023-04-09T14:45:40.671Z,3.13
2023-04-09T14:48:07.283Z,3.10
2023-04-09T14:50:34.295Z,2.95
2023-04-09T14:53:01.476Z,3.55
2023-04-09T14:55:28.340Z,3.30
2023-04-09T14:57:55.000Z,2.83
2023-04-09T15:00:22.701Z,2.67
2023-04-09T15:02:49.502Z,2.90
2023-04-09T15:05:16.231Z,3.15
2023-04-09T15:07:43.816Z,3.35
2023-04-09T15:10:11.025Z,2.95
2023-04-09T15:12:37.611Z,2.80
2023-04-09T15:15:08.850Z,3.00
2023-04-09T15:17:35.799Z,2.63
2023-04-09T15:20:02.422Z,3.38
2023-04-09T15:22:29.011Z,3.10
2023-04-09T15:24:55.724Z,3.00
2023-04-09T15:27:22.316Z,2.97
2023-04-09T15:29:48.951Z,3.00
2023-04-09T15:32:15.529Z,3.08
2023-04-09T15:34:42.128Z,2.90
2023-04-09T15:37:08.664Z,2.95
2023-04-09T15:39:35.409Z,2.85
2023-04-09T15:42:02.074Z,2.70
2023-04-09T15:44:28.885Z,3.00
2023-04-09T15:46:56.199Z,2.70
2023-04-09T15:49:23.333Z,2.53
2023-04-09T15:51:49.908Z,2.95
2023-04-09T15:54:16.654Z,3.10
2023-04-09T15:56:43.253Z,2.67
2023-04-09T15:59:10.074Z,2.70
2023-04-09T16:01:36.979Z,2.67
2023-04-09T16:04:04.783Z,2.90
2023-04-09T16:06:31.937Z,2.83
2023-04-09T16:08:58.673Z,2.50
2023-04-09T16:11:26.044Z,2.85
2023-04-09T16:13:52.779Z,2.72
2023-04-09T16:16:19.669Z,2.50
2023-04-09T16:18:46.311Z,2.63
2023-04-09T16:21:13.080Z,3.05
2023-04-09T16:23:39.940Z,2.58
2023-04-09T16:26:07.016Z,2.83
2023-04-09T16:28:33.754Z,2.50
2023-04-09T16:31:00.455Z,3.10
2023-04-09T16:33:27.089Z,2.78
2023-04-09T16:35:53.666Z,2.40
2023-04-09T16:38:20.308Z,2.78
2023-04-09T16:40:46.967Z,2.50
2023-04-09T16:43:13.500Z,4.10
2023-04-09T16:48:24.670Z,2.33
2023-04-09T16:50:51.217Z,2.33
2023-04-09T16:53:17.968Z,2.42
2023-04-09T16:55:44.913Z,5.47
2023-04-09T16:58:11.521Z,6.82
2023-04-09T17:00:40.021Z,2.78
2023-04-09T17:03:06.897Z,2.38
2023-04-09T17:05:33.835Z,2.40
2023-04-09T17:08:01.167Z,2.30
2023-04-09T17:10:27.986Z,2.22
2023-04-09T17:12:54.811Z,2.90
2023-04-09T17:15:22.682Z,2.60
2023-04-09T17:17:51.341Z,2.55
2023-04-09T17:20:18.085Z,2.70
2023-04-09T17:22:44.677Z,2.80
2023-04-09T17:25:11.498Z,2.45
2023-04-09T17:27:38.028Z,2.63
2023-04-09T17:30:05.163Z,3.17
2023-04-09T17:32:31.914Z,3.40
2023-04-09T17:34:59.659Z,3.00
2023-04-09T17:37:28.689Z,3.17
2023-04-09T17:39:55.508Z,2.97
2023-04-09T17:42:23.341Z,3.03
2023-04-09T17:44:49.873Z,3.55
2023-04-09T17:47:17.041Z,3.63
2023-04-09T17:49:43.793Z,3.00
2023-04-09T17:52:10.354Z,3.25
2023-04-09T17:54:38.103Z,3.05
2023-04-09T17:57:07.235Z,2.78
2023-04-09T17:59:37.020Z,3.38
2023-04-09T18:02:03.823Z,3.08
2023-04-09T18:04:31.642Z,3.65
2023-04-09T18:06:58.439Z,3.00
2023-04-09T18:09:25.022Z,2.67
2023-04-09T18:11:56.259Z,2.97
2023-04-09T18:14:23.020Z,2.88
2023-04-09T18:16:49.795Z,3.08
2023-04-09T18:19:16.593Z,3.00
2023-04-09T18:21:43.152Z,3.25
2023-04-09T18:24:09.702Z,3.25
2023-04-09T18:26:36.704Z,3.60
2023-04-09T18:29:03.372Z,3.28
2023-04-09T18:31:29.975Z,4.60
2023-04-09T18:33:56.573Z,3.65
2023-04-09T18:36:23.436Z,3.40
2023-04-09T18:38:49.997Z,3.20
2023-04-09T18:41:26.607Z,3.78
2023-04-09T18:43:53.938Z,3.20
2023-04-09T18:46:20.524Z,3.40
2023-04-09T18:48:47.148Z,3.67
2023-04-09T18:51:14.552Z,3.85
2023-04-09T18:53:42.053Z,3.80
2023-04-09T18:56:09.129Z,4.35
2023-04-09T18:58:36.351Z,4.13
2023-04-09T19:01:11.209Z,4.40
2023-04-09T19:03:38.629Z,3.78
2023-04-09T19:06:19.685Z,4.20
2023-04-09T19:08:47.915Z,3.40
2023-04-09T19:11:15.218Z,3.65
2023-04-09T19:13:41.848Z,3.70
2023-04-09T19:16:12.361Z,3.30
2023-04-09T19:18:38.951Z,3.95
2023-04-09T19:21:07.487Z,3.40
2023-04-09T19:23:34.597Z,3.78
2023-04-09T19:26:02.328Z,4.03
2023-04-09T19:28:29.108Z,3.50
2023-04-09T19:30:55.738Z,3.38
2023-04-09T19:33:24.312Z,3.80
2023-04-09T19:35:51.674Z,3.50
2023-04-09T19:38:19.034Z,3.90
2023-04-09T19:40:46.437Z,3.78
2023-04-09T19:43:13.841Z,3.60
2023-04-09T19:45:42.452Z,4.15
2023-04-09T19:48:09.187Z,3.58
2023-04-09T19:50:46.547Z,4.03
2023-04-09T19:53:13.170Z,4.05
2023-04-09T19:55:39.743Z,4.10
2023-04-09T19:58:06.928Z,4.10
2023-04-09T20:00:34.105Z,3.88
2023-04-09T20:03:01.186Z,3.90
2023-04-09T20:05:27.845Z,4.20
2023-04-09T20:07:54.808Z,4.03
2023-04-09T20:10:21.566Z,4.03
2023-04-09T20:12:49.672Z,4.43
2023-04-09T20:15:19.938Z,4.28
2023-04-09T20:17:48.409Z,3.92
2023-04-09T20:20:17.917Z,4.50
2023-04-09T20:22:47.507Z,4.50
2023-04-09T20:25:14.201Z,4.40
2023-04-09T20:27:41.090Z,4.10
2023-04-09T20:30:08.302Z,4.13
2023-04-09T20:32:36.928Z,4.07
2023-04-09T20:35:04.705Z,3.90
2023-04-09T20:37:31.269Z,3.83
2023-04-09T20:39:59.452Z,4.10
2023-04-09T20:42:26.258Z,3.95
2023-04-09T20:44:53.222Z,3.90
2023-04-09T20:47:21.107Z,3.97
2023-04-09T20:49:49.028Z,3.70
2023-04-09T20:52:15.563Z,3.90
2023-04-09T20:54:43.061Z,4.70
2023-04-09T20:57:11.061Z,3.80
2023-04-09T20:59:39.429Z,3.60
2023-04-09T21:02:06.122Z,4.10
2023-04-09T21:04:32.931Z,4.35
2023-04-09T21:06:59.478Z,3.78
2023-04-09T21:09:26.195Z,3.90
2023-04-09T21:11:52.739Z,4.03
2023-04-09T21:14:19.264Z,4.43
2023-04-09T21:16:45.991Z,4.20
2023-04-09T21:19:12.537Z,4.63
2023-04-09T21:21:39.114Z,4.10
2023-04-09T21:24:05.704Z,4.03
2023-04-09T21:26:48.691Z,4.07
2023-04-09T21:29:17.250Z,4.30
2023-04-09T21:31:43.851Z,4.00
2023-04-09T21:34:10.411Z,4.10
2023-04-09T21:36:39.260Z,4.00
2023-04-09T21:39:05.963Z,3.70
2023-04-09T21:41:32.539Z,3.92
2023-04-09T21:44:03.465Z,3.63
2023-04-09T21:46:30.072Z,3.83
2023-04-09T21:48:56.842Z,4.10
2023-04-09T21:51:23.421Z,4.35
2023-04-09T21:53:50.183Z,3.85
2023-04-09T21:56:16.722Z,3.75
2023-04-09T21:58:43.340Z,3.63
2023-04-09T22:01:22.437Z,3.60
2023-04-09T22:03:54.935Z,4.28
2023-04-09T22:06:21.478Z,4.00
2023-04-09T22:08:55.345Z,4.65
2023-04-09T22:11:28.386Z,4.22
2023-04-09T22:13:56.785Z,4.40
2023-04-09T22:16:24.078Z,4.13
2023-04-09T22:18:51.528Z,3.50
2023-04-09T22:21:18.432Z,4.57
2023-04-09T22:23:45.411Z,4.00
2023-04-09T22:26:11.988Z,4.00
2023-04-09T22:28:38.653Z,3.85
2023-04-09T22:31:05.955Z,3.95
2023-04-09T22:33:32.860Z,4.15
2023-04-09T22:35:59.697Z,4.40
2023-04-09T22:38:26.544Z,3.70
2023-04-09T22:40:53.224Z,4.18
2023-04-09T22:43:19.830Z,3.75
2023-04-09T22:45:54.302Z,3.83
2023-04-09T22:48:22.043Z,3.90
2023-04-09T22:50:49.479Z,4.22
2023-04-09T22:53:19.405Z,4.13
2023-04-09T22:55:54.509Z,4.32
2023-04-09T22:58:21.277Z,4.40
2023-04-09T23:00:48.238Z,4.32
2023-04-09T23:03:15.103Z,3.88
2023-04-09T23:05:42.238Z,4.20
2023-04-09T23:08:09.214Z,4.22
2023-04-09T23:10:36.161Z,3.67
2023-04-09T23:13:02.855Z,4.15
2023-04-09T23:15:29.540Z,3.95
2023-04-09T23:17:56.292Z,4.30
2023-04-09T23:20:23.358Z,4.10
2023-04-09T23:22:50.424Z,4.07
2023-04-09T23:25:17.378Z,4.25
2023-04-09T23:27:44.387Z,4.28
2023-04-09T23:30:11.670Z,4.25
2023-04-09T23:32:38.294Z,4.60
2023-04-09T23:35:05.610Z,4.15
2023-04-09T23:37:32.177Z,4.10
2023-04-09T23:39:58.731Z,4.28
2023-04-09T23:42:26.870Z,4.65
2023-04-09T23:44:53.371Z,4.25
2023-04-09T23:47:19.875Z,3.80
2023-04-09T23:49:46.808Z,4.40
2023-04-09T23:52:13.362Z,4.05
2023-04-09T23:54:48.984Z,4.38
2023-04-09T23:57:15.531Z,4.63
2023-04-09T23:59:42.047Z,4.32
